Racecast

Amodi Booker

Virginia Beach Flames (VA) · 3 · Compare head to head

Athlete rating 131.5 2026 TF season
Best race 133.5 TF
Races 29
Seasons 1 2026
Rating scale ?
Speed rating — all races

Track & Field

TF speed rating

2026 TF 125.4

Virginia Beach Flames (VA) · Grade 3

Date Meet Event Result Place Rating Difficulty PR/SR Flags
2026-06-13 AAU Virginia District Qualifier - South 800m 2:38.95 2nd · 1st on team 131.5 -0.033
2026-06-13 AAU Virginia District Qualifier - South 1500m 5:17.5 3rd · 2nd on team 131.7 -0.033 ★PR SR
2026-06-13 AAU Virginia District Qualifier - South 400m 1:09.38 4th · 1st on team -0.033 ★PR SR
2026-05-30 Va Beach Flames Invite 800m 2:38.13 1st · 1st on team 133.5 -0.023 ★PR ★R SR RSR
2026-05-30 Va Beach Flames Invite 400m 1:10.76 5th · 1st on team -0.023 PR SR
2026-05-24 HR Hurricanes CAT 5 Invite javelin 37' 7" -0.035
2026-05-24 HR Hurricanes CAT 5 Invite 400m 1:11.18 5th · 1st on team -0.035 PR SR
2026-05-24 HR Hurricanes CAT 5 Invite 800m 2:38.89 1st · 1st on team 131.2 -0.035 PR R SR RSR
2026-05-16 2026 Technique Relays javelin 45' 8" -0.035
2026-05-16 2026 Technique Relays 800m 2:44.99 1st · 1st on team 126.4 -0.035 PR R SR RSR
2026-05-16 2026 Technique Relays 400m 1:13.13 6th · 1st on team -0.035 PR SR
2026-05-09 VA "Legends" T & F Youth Invite javelin DNS -0.033
2026-04-26 Virginia Pride Spring Kick-Off 400m 1:19.66 19th · 2nd on team -0.029
2026-03-06 AAU Indoor National Championship 400m 1:15.06 38th · 2nd on team -0.036 PR SR
2026-03-06 AAU Indoor National Championship 800m 2:53.16 21st · 2nd on team 120.8 -0.036
2026-02-28 BWSP Queens and Kings Championships 800m 3:01.74 7th · 2nd on team 116.1 -0.024
2026-02-28 BWSP Queens and Kings Championships 400m 1:15.63 13th · 2nd on team -0.024
2026-02-22 3rd Annual HRH Winter Storm Classic 800m 2:48.13 2nd · 1st on team 125.4 -0.024
2026-02-22 3rd Annual HRH Winter Storm Classic 400m 1:16.5 10th · 2nd on team -0.024
2026-01-31 BWSP Queens and Kings - Meet 3 400m 1:18.69 12th · 2nd on team -0.024
2026-01-31 BWSP Queens and Kings - Meet 3 800m 2:49.88 3rd · 2nd on team 124.2 -0.024
2026-01-17 BWSP Queens and Kings - Meet 2 800m 2:47.18 5th · 2nd on team 126.2 -0.024 PR R SR RSR
2026-01-17 BWSP Queens and Kings - Meet 2 400m 1:15.43 6th · 2nd on team -0.024 PR SR
2026-01-03 BWSP Queens and Kings - Meet 1 800m 2:58.07 3rd · 1st on team 118.4 -0.024
2026-01-03 BWSP Queens and Kings - Meet 1 400m 1:21.89 15th · 2nd on team -0.024 PR SR
2025-12-20 2025 Howard White Holiday Track Classic 800m 2:57.37 3rd · 1st on team 118.8 -0.024 PR R SR RSR
2025-12-20 2025 Howard White Holiday Track Classic 400m 1:26.5 19th · 2nd on team -0.024
2025-12-06 Coach Miami Presents the Virginia Beast Invitational 200m 35.27 16th · 4th on team -0.036 ★PR SR
2025-12-06 Coach Miami Presents the Virginia Beast Invitational 400m 1:21.99 11th · 3rd on team -0.036 PR SR